createdAt,value
2024-02-16T00:01:14.725Z,11.00
2024-02-16T00:03:41.549Z,11.00
2024-02-16T00:06:08.548Z,11.00
2024-02-16T00:08:35.957Z,11.00
2024-02-16T00:11:02.856Z,11.00
2024-02-16T00:13:29.747Z,11.00
2024-02-16T00:15:56.625Z,11.00
2024-02-16T00:18:23.603Z,10.90
2024-02-16T00:20:50.816Z,10.90
2024-02-16T00:23:20.175Z,10.90
2024-02-16T00:25:47.114Z,10.90
2024-02-16T00:28:13.990Z,10.90
2024-02-16T00:30:42.260Z,10.90
2024-02-16T00:33:09.168Z,10.90
2024-02-16T00:35:36.087Z,10.80
2024-02-16T00:38:02.964Z,10.80
2024-02-16T00:40:29.806Z,10.70
2024-02-16T00:42:56.738Z,10.70
2024-02-16T00:45:23.652Z,10.70
2024-02-16T00:47:50.646Z,10.60
2024-02-16T00:50:17.593Z,10.60
2024-02-16T00:52:46.479Z,10.50
2024-02-16T00:55:14.441Z,10.50
2024-02-16T00:57:41.306Z,10.40
2024-02-16T01:00:10.430Z,10.40
2024-02-16T01:02:37.438Z,10.40
2024-02-16T01:05:04.959Z,10.40
2024-02-16T01:07:33.613Z,10.30
2024-02-16T01:10:01.142Z,10.30
2024-02-16T01:12:28.216Z,10.20
2024-02-16T01:14:55.112Z,10.20
2024-02-16T01:17:21.969Z,10.20
2024-02-16T01:19:48.882Z,10.10
2024-02-16T01:22:15.835Z,10.10
2024-02-16T01:24:43.222Z,10.10
2024-02-16T01:27:10.276Z,10.10
2024-02-16T01:29:37.154Z,10.10
2024-02-16T01:32:04.260Z,10.10
2024-02-16T01:34:34.175Z,10.10
2024-02-16T01:37:01.229Z,10.10
2024-02-16T01:39:28.229Z,10.10
2024-02-16T01:41:55.276Z,10.10
2024-02-16T01:44:22.211Z,10.10
2024-02-16T01:46:49.506Z,10.10
2024-02-16T01:49:16.532Z,10.10
2024-02-16T01:51:43.662Z,10.10
2024-02-16T01:54:10.567Z,10.10
2024-02-16T01:56:37.428Z,10.10
2024-02-16T01:59:04.322Z,10.10
2024-02-16T02:01:31.663Z,10.10
2024-02-16T02:03:58.650Z,10.10
2024-02-16T02:06:25.680Z,10.10
2024-02-16T02:08:52.884Z,10.20
2024-02-16T02:11:19.886Z,10.20
2024-02-16T02:13:46.763Z,10.20
2024-02-16T02:16:14.491Z,10.20
2024-02-16T02:18:41.547Z,10.10
2024-02-16T02:21:08.458Z,10.20
2024-02-16T02:23:35.316Z,10.20
2024-02-16T02:26:02.588Z,10.20
2024-02-16T02:28:30.614Z,10.20
2024-02-16T02:30:57.538Z,10.20
2024-02-16T02:33:24.503Z,10.20
2024-02-16T02:35:52.436Z,10.20
2024-02-16T02:38:19.345Z,10.20
2024-02-16T02:40:46.162Z,10.20
2024-02-16T02:43:13.208Z,10.20
2024-02-16T02:45:40.066Z,10.20
2024-02-16T02:48:07.440Z,10.20
2024-02-16T02:50:34.375Z,10.20
2024-02-16T02:53:01.217Z,10.20
2024-02-16T02:55:28.087Z,10.20
2024-02-16T02:57:54.914Z,10.20
2024-02-16T03:00:21.955Z,10.20
2024-02-16T03:02:49.717Z,10.20
2024-02-16T03:05:16.817Z,10.20
2024-02-16T03:07:43.921Z,10.20
2024-02-16T03:10:11.430Z,10.20
2024-02-16T03:12:38.486Z,10.20
2024-02-16T03:15:06.048Z,10.20
2024-02-16T03:17:33.041Z,10.20
2024-02-16T03:19:59.945Z,10.20
2024-02-16T03:22:26.810Z,10.20
2024-02-16T03:24:53.657Z,10.20
2024-02-16T03:27:20.553Z,10.20
2024-02-16T03:29:47.432Z,10.20
2024-02-16T03:32:14.556Z,10.20
2024-02-16T03:34:41.686Z,10.20
2024-02-16T03:37:09.653Z,10.20
2024-02-16T03:39:36.657Z,10.20
2024-02-16T03:42:03.836Z,10.20
2024-02-16T03:44:30.921Z,10.20
2024-02-16T03:46:57.763Z,10.20
2024-02-16T03:49:26.823Z,10.20
2024-02-16T03:51:53.736Z,10.20
2024-02-16T03:54:20.565Z,10.20
2024-02-16T03:56:47.463Z,10.20
2024-02-16T03:59:14.338Z,10.20
2024-02-16T04:01:43.247Z,10.20
2024-02-16T04:04:10.430Z,10.20
2024-02-16T04:06:37.658Z,10.20
2024-02-16T04:09:07.241Z,10.30
2024-02-16T04:11:34.580Z,10.30
2024-02-16T04:14:01.404Z,10.30
2024-02-16T04:16:29.677Z,10.30
2024-02-16T04:18:56.893Z,10.30
2024-02-16T04:21:23.901Z,10.30
2024-02-16T04:23:50.912Z,10.30
2024-02-16T04:26:17.782Z,10.30
2024-02-16T04:28:44.645Z,10.40
2024-02-16T04:31:11.557Z,10.40
2024-02-16T04:33:38.730Z,10.30
2024-02-16T04:36:08.497Z,10.30
2024-02-16T04:38:35.529Z,10.30
2024-02-16T04:41:02.369Z,10.30
2024-02-16T04:43:29.230Z,10.30
2024-02-16T04:45:56.050Z,10.30
2024-02-16T04:48:22.947Z,10.30
2024-02-16T04:50:50.290Z,10.20
2024-02-16T04:53:17.481Z,10.20
2024-02-16T04:55:44.323Z,10.20
2024-02-16T04:58:11.258Z,10.20
2024-02-16T05:00:39.665Z,10.20
2024-02-16T05:03:06.920Z,10.10
2024-02-16T05:05:33.891Z,10.10
2024-02-16T05:08:01.186Z,10.10
2024-02-16T05:10:28.047Z,10.10
2024-02-16T05:12:55.220Z,10.10
2024-02-16T05:15:22.141Z,10.10
2024-02-16T05:17:52.458Z,10.10
2024-02-16T05:20:20.795Z,10.10
2024-02-16T05:22:48.200Z,10.10
2024-02-16T05:25:15.297Z,10.10
2024-02-16T05:27:42.598Z,10.10
2024-02-16T05:30:15.752Z,10.10
2024-02-16T05:32:43.468Z,10.00
2024-02-16T05:35:15.761Z,10.00
2024-02-16T05:37:45.632Z,10.00
2024-02-16T05:40:30.004Z,10.00
2024-02-16T05:43:00.717Z,10.00
2024-02-16T05:45:27.916Z,10.00
2024-02-16T05:47:55.069Z,10.00
2024-02-16T05:50:22.618Z,10.00
2024-02-16T05:52:51.190Z,10.00
2024-02-16T05:55:20.153Z,10.00
2024-02-16T05:57:47.260Z,9.90
2024-02-16T06:00:16.738Z,9.90
2024-02-16T06:02:43.969Z,9.90
2024-02-16T06:05:12.019Z,9.90
2024-02-16T06:07:39.704Z,9.90
2024-02-16T06:10:11.876Z,9.90
2024-02-16T06:12:39.687Z,9.90
2024-02-16T06:15:06.946Z,9.90
2024-02-16T06:17:34.411Z,9.90
2024-02-16T06:20:02.234Z,9.90
2024-02-16T06:22:29.505Z,9.90
2024-02-16T06:24:56.361Z,9.90
2024-02-16T06:27:23.282Z,9.90
2024-02-16T06:29:50.287Z,9.90
2024-02-16T06:32:18.272Z,9.90
2024-02-16T06:34:47.013Z,9.90
2024-02-16T06:37:14.162Z,9.90
2024-02-16T06:39:41.254Z,9.90
2024-02-16T06:42:08.199Z,9.90
2024-02-16T06:44:35.142Z,9.90
2024-02-16T06:47:01.986Z,9.90
2024-02-16T06:49:29.195Z,9.90
2024-02-16T06:51:56.524Z,9.90
2024-02-16T06:54:23.579Z,9.90
2024-02-16T06:56:52.496Z,9.90
2024-02-16T06:59:20.396Z,9.90
2024-02-16T07:01:47.288Z,9.90
2024-02-16T07:04:14.223Z,9.90
2024-02-16T07:06:42.056Z,9.80
2024-02-16T07:09:09.151Z,9.90
2024-02-16T07:11:36.339Z,9.90
2024-02-16T07:14:03.947Z,9.90
2024-02-16T07:16:31.752Z,9.90
2024-02-16T07:18:58.758Z,9.90
2024-02-16T07:21:27.211Z,9.90
2024-02-16T07:23:54.573Z,9.90
2024-02-16T07:26:21.478Z,9.90
2024-02-16T07:28:48.448Z,9.90
2024-02-16T07:31:15.701Z,9.90
2024-02-16T07:33:43.442Z,9.90
2024-02-16T07:36:10.561Z,9.90
2024-02-16T07:38:37.483Z,10.00
2024-02-16T07:41:08.385Z,10.00
2024-02-16T07:43:36.351Z,10.00
2024-02-16T07:46:04.909Z,10.10
2024-02-16T07:48:32.121Z,10.10
2024-02-16T07:51:03.818Z,10.20
2024-02-16T07:53:31.935Z,10.30
2024-02-16T07:56:02.092Z,10.30
2024-02-16T07:58:28.985Z,10.40
2024-02-16T08:00:56.612Z,10.50
2024-02-16T08:03:23.723Z,10.50
2024-02-16T08:05:51.025Z,10.60
2024-02-16T08:08:17.976Z,10.60
2024-02-16T08:10:44.896Z,10.70
2024-02-16T08:13:11.771Z,10.70
2024-02-16T08:15:38.688Z,10.80
2024-02-16T08:18:06.785Z,10.90
2024-02-16T08:20:33.701Z,10.90
2024-02-16T08:23:00.759Z,11.00
2024-02-16T08:25:28.487Z,11.00
2024-02-16T08:27:55.355Z,11.00
2024-02-16T08:30:22.313Z,11.10
2024-02-16T08:32:49.310Z,11.10
2024-02-16T08:35:18.633Z,11.10
2024-02-16T08:37:45.812Z,11.10
2024-02-16T08:40:15.874Z,11.20
2024-02-16T08:42:46.151Z,11.20
2024-02-16T08:45:14.062Z,11.30
2024-02-16T08:47:41.752Z,11.40
2024-02-16T08:50:09.503Z,11.50
2024-02-16T08:52:36.859Z,11.60
2024-02-16T08:55:03.851Z,11.70
2024-02-16T08:57:33.009Z,11.70
2024-02-16T08:59:59.971Z,11.80
2024-02-16T09:02:26.886Z,11.80
2024-02-16T09:04:53.730Z,11.90
2024-02-16T09:07:20.806Z,11.90
2024-02-16T09:09:47.895Z,11.90
2024-02-16T09:12:14.788Z,12.00
2024-02-16T09:14:41.980Z,12.10
2024-02-16T09:17:08.871Z,12.10
2024-02-16T09:19:35.765Z,12.20
2024-02-16T09:22:03.962Z,12.30
2024-02-16T09:24:31.200Z,12.40
2024-02-16T09:26:59.020Z,12.50
2024-02-16T09:29:26.189Z,12.50
2024-02-16T09:31:53.782Z,12.50
2024-02-16T09:34:20.726Z,12.50
2024-02-16T09:36:47.642Z,12.50
2024-02-16T09:39:14.559Z,12.50
2024-02-16T09:41:43.346Z,12.40
2024-02-16T09:44:11.421Z,12.40
2024-02-16T09:46:38.370Z,12.30
2024-02-16T09:49:06.649Z,12.30
2024-02-16T09:51:37.540Z,12.30
2024-02-16T09:54:04.993Z,12.30
2024-02-16T09:56:31.875Z,12.40
2024-02-16T09:58:58.798Z,12.30
2024-02-16T10:01:25.795Z,12.30
2024-02-16T10:03:52.962Z,12.30
2024-02-16T10:06:22.365Z,12.20
2024-02-16T10:08:53.244Z,12.20
2024-02-16T10:11:21.690Z,12.30
2024-02-16T10:14:03.742Z,12.50
2024-02-16T10:16:32.190Z,12.80
2024-02-16T10:19:14.624Z,13.10
2024-02-16T10:21:43.970Z,13.20
2024-02-16T10:24:15.662Z,13.60
2024-02-16T10:26:42.697Z,13.80
2024-02-16T10:29:14.788Z,13.80
2024-02-16T10:31:42.043Z,13.60
2024-02-16T10:34:10.726Z,13.50
2024-02-16T10:36:39.112Z,13.40
2024-02-16T10:39:07.352Z,13.40
2024-02-16T10:41:36.006Z,13.40
2024-02-16T10:44:05.125Z,13.50
2024-02-16T10:46:32.541Z,13.50
2024-02-16T10:48:59.991Z,13.50
2024-02-16T10:51:39.851Z,13.50
2024-02-16T10:54:07.387Z,13.60
2024-02-16T10:56:38.522Z,13.50
2024-02-16T10:59:06.683Z,13.50
2024-02-16T11:01:40.753Z,13.50
2024-02-16T11:04:12.197Z,13.40
2024-02-16T11:06:49.669Z,13.40
2024-02-16T11:09:37.028Z,13.40
2024-02-16T11:12:05.635Z,13.30
2024-02-16T11:14:43.850Z,13.30
2024-02-16T11:17:15.150Z,13.30
2024-02-16T11:19:46.680Z,13.20
2024-02-16T11:22:19.293Z,13.00
2024-02-16T11:24:51.034Z,13.00
2024-02-16T11:27:22.704Z,12.90
2024-02-16T11:29:50.450Z,12.90
2024-02-16T11:32:19.402Z,13.00
2024-02-16T11:34:46.375Z,13.00
2024-02-16T11:37:14.032Z,13.10
2024-02-16T11:39:43.089Z,13.20
2024-02-16T11:42:12.185Z,13.30
2024-02-16T11:44:42.188Z,13.40
2024-02-16T11:47:18.255Z,13.50
2024-02-16T11:49:45.676Z,13.60
2024-02-16T11:52:12.639Z,13.70
2024-02-16T11:54:39.598Z,13.70
2024-02-16T11:57:09.620Z,13.80
2024-02-16T11:59:36.604Z,13.90
2024-02-16T12:02:03.993Z,13.90
2024-02-16T12:04:31.782Z,14.00
2024-02-16T12:07:04.690Z,14.00
2024-02-16T12:09:36.707Z,14.10
2024-02-16T12:12:04.297Z,14.20
2024-02-16T12:14:31.377Z,14.30
2024-02-16T12:16:58.951Z,14.50
2024-02-16T12:19:26.275Z,14.70
2024-02-16T12:21:54.345Z,14.90
2024-02-16T12:24:21.604Z,15.00
2024-02-16T12:26:48.888Z,15.10
2024-02-16T12:29:17.271Z,15.00
2024-02-16T12:31:45.982Z,15.00
2024-02-16T12:34:14.085Z,14.90
2024-02-16T12:36:44.420Z,14.80
2024-02-16T12:39:15.835Z,14.80
2024-02-16T12:41:44.446Z,14.80
2024-02-16T12:44:11.442Z,14.80
2024-02-16T12:46:40.091Z,14.70
2024-02-16T12:49:08.186Z,14.70
2024-02-16T12:51:35.638Z,14.80
2024-02-16T12:54:05.389Z,14.90
2024-02-16T12:56:32.351Z,15.00
2024-02-16T12:59:01.500Z,15.00
2024-02-16T13:01:29.178Z,14.90
2024-02-16T13:03:56.155Z,14.90
2024-02-16T13:06:26.751Z,14.80
2024-02-16T13:08:55.959Z,14.80
2024-02-16T13:11:22.877Z,14.80
2024-02-16T13:13:49.762Z,14.80
2024-02-16T13:16:16.688Z,14.70
2024-02-16T13:18:43.664Z,14.70
2024-02-16T13:21:10.795Z,14.70
2024-02-16T13:23:37.750Z,14.70
2024-02-16T13:26:05.740Z,14.60
2024-02-16T13:28:32.751Z,14.60
2024-02-16T13:30:59.917Z,14.60
2024-02-16T13:33:27.498Z,14.60
2024-02-16T13:35:56.008Z,14.50
2024-02-16T13:38:23.136Z,14.50
2024-02-16T13:40:50.560Z,14.50
2024-02-16T13:43:17.878Z,14.50
2024-02-16T13:45:53.260Z,14.40
2024-02-16T13:48:21.423Z,14.40
2024-02-16T13:50:49.370Z,14.30
2024-02-16T13:53:21.057Z,14.20
2024-02-16T13:55:48.997Z,14.20
2024-02-16T13:58:16.043Z,14.10
2024-02-16T14:00:43.113Z,14.20
2024-02-16T14:03:11.590Z,14.20
2024-02-16T14:05:42.511Z,14.20
2024-02-16T14:08:12.256Z,14.20
2024-02-16T14:10:39.497Z,14.10
2024-02-16T14:13:06.407Z,14.10
2024-02-16T14:15:33.885Z,14.00
2024-02-16T14:18:06.376Z,13.90
2024-02-16T14:20:38.967Z,13.90
2024-02-16T14:23:09.104Z,13.90
2024-02-16T14:25:38.695Z,13.80
2024-02-16T14:28:06.381Z,13.80
2024-02-16T14:30:33.779Z,13.70
2024-02-16T14:33:01.474Z,13.70
2024-02-16T14:35:30.749Z,13.70
2024-02-16T14:37:58.027Z,13.60
2024-02-16T14:40:25.243Z,13.60
2024-02-16T14:42:52.255Z,13.60
2024-02-16T14:45:22.966Z,13.50
2024-02-16T14:47:50.363Z,13.50
2024-02-16T14:50:17.919Z,13.40
2024-02-16T14:52:46.585Z,13.40
2024-02-16T14:55:14.862Z,13.40
2024-02-16T14:57:42.880Z,13.30
2024-02-16T15:00:12.312Z,13.30
2024-02-16T15:02:40.088Z,13.20
2024-02-16T15:05:08.117Z,13.20
2024-02-16T15:07:36.034Z,13.20
2024-02-16T15:10:04.369Z,13.10
2024-02-16T15:12:31.692Z,13.10
2024-02-16T15:14:58.740Z,13.10
2024-02-16T15:17:25.702Z,13.00
2024-02-16T15:19:54.110Z,13.00
2024-02-16T15:22:21.127Z,12.90
2024-02-16T15:24:48.214Z,12.90
2024-02-16T15:27:15.485Z,12.80
2024-02-16T15:29:42.372Z,12.80
2024-02-16T15:32:10.193Z,12.70
2024-02-16T15:34:37.574Z,12.70
2024-02-16T15:37:05.095Z,12.60
2024-02-16T15:39:32.182Z,12.60
2024-02-16T15:41:59.562Z,12.50
2024-02-16T15:44:27.221Z,12.50
2024-02-16T15:46:55.503Z,12.40
2024-02-16T15:49:23.668Z,12.40
2024-02-16T15:51:52.273Z,12.30
2024-02-16T15:54:19.352Z,12.20
2024-02-16T15:56:46.342Z,12.20
2024-02-16T15:59:13.425Z,12.10
2024-02-16T16:01:43.683Z,11.90
2024-02-16T16:04:10.745Z,11.80
2024-02-16T16:06:37.967Z,11.70
2024-02-16T16:09:08.418Z,11.60
2024-02-16T16:11:35.995Z,11.50
2024-02-16T16:14:03.722Z,11.40
2024-02-16T16:16:31.224Z,11.40
2024-02-16T16:18:58.181Z,11.30
2024-02-16T16:21:25.284Z,11.20
2024-02-16T16:23:52.223Z,11.10
2024-02-16T16:26:21.654Z,11.00
2024-02-16T16:28:48.982Z,10.90
2024-02-16T16:31:16.231Z,10.90
2024-02-16T16:33:43.439Z,10.80
2024-02-16T16:36:16.200Z,10.80
2024-02-16T16:38:43.497Z,10.70
2024-02-16T16:41:10.917Z,10.70
2024-02-16T16:43:38.240Z,10.60
2024-02-16T16:46:08.443Z,10.60
2024-02-16T16:48:35.625Z,10.60
2024-02-16T16:51:03.729Z,10.50
2024-02-16T16:53:30.663Z,10.50
2024-02-16T16:55:57.489Z,10.50
2024-02-16T16:58:24.325Z,10.40
2024-02-16T17:00:51.313Z,10.40
2024-02-16T17:03:18.278Z,10.40
2024-02-16T17:05:46.894Z,10.30
2024-02-16T17:08:13.857Z,10.30
2024-02-16T17:10:41.132Z,10.30
2024-02-16T17:13:08.419Z,10.30
2024-02-16T17:15:35.502Z,10.20
2024-02-16T17:18:03.246Z,10.20
2024-02-16T17:20:30.447Z,10.20
2024-02-16T17:22:57.474Z,10.20
2024-02-16T17:25:25.188Z,10.10
2024-02-16T17:27:52.298Z,10.10
2024-02-16T17:30:21.296Z,10.10
2024-02-16T17:32:50.177Z,10.00
2024-02-16T17:35:18.126Z,10.00
2024-02-16T17:37:46.661Z,10.00
2024-02-16T17:40:55.488Z,10.00
2024-02-16T17:44:02.746Z,10.00
2024-02-16T17:47:26.090Z,10.00
2024-02-16T17:50:14.618Z,10.00
2024-02-16T17:53:00.498Z,10.00
2024-02-16T17:55:35.087Z,10.00
2024-02-16T17:58:03.692Z,10.00
2024-02-16T18:00:31.066Z,10.00
2024-02-16T18:02:58.177Z,10.00
2024-02-16T18:05:25.169Z,10.00
2024-02-16T18:07:53.101Z,10.00
2024-02-16T18:10:22.279Z,10.00
2024-02-16T18:12:50.203Z,10.00
2024-02-16T18:15:19.478Z,9.90
2024-02-16T18:17:46.341Z,9.90
2024-02-16T18:20:14.020Z,9.90
2024-02-16T18:22:41.538Z,10.00
2024-02-16T18:25:08.967Z,9.90
2024-02-16T18:27:35.830Z,9.90
2024-02-16T18:30:03.080Z,9.90
2024-02-16T18:32:30.449Z,9.90
2024-02-16T18:34:57.642Z,9.90
2024-02-16T18:37:24.667Z,9.90
2024-02-16T18:39:51.590Z,9.90
2024-02-16T18:42:18.601Z,9.90
2024-02-16T18:44:45.616Z,9.90
2024-02-16T18:47:12.531Z,9.80
2024-02-16T18:49:39.485Z,9.80
2024-02-16T18:52:06.561Z,9.80
2024-02-16T18:54:33.638Z,9.80
2024-02-16T18:57:00.595Z,9.80
2024-02-16T18:59:27.468Z,9.80
2024-02-16T19:02:02.099Z,9.80
2024-02-16T19:04:32.124Z,9.70
2024-02-16T19:06:59.244Z,9.70
2024-02-16T19:09:26.236Z,9.80
2024-02-16T19:11:53.175Z,9.80
2024-02-16T19:14:21.078Z,9.70
2024-02-16T19:16:47.932Z,9.70
2024-02-16T19:19:15.677Z,9.70
2024-02-16T19:21:43.815Z,9.70
2024-02-16T19:24:11.066Z,9.70
2024-02-16T19:26:38.310Z,9.60
2024-02-16T19:29:05.151Z,9.60
2024-02-16T19:31:34.209Z,9.60
2024-02-16T19:34:04.165Z,9.60
2024-02-16T19:36:31.724Z,9.60
2024-02-16T19:38:58.770Z,9.50
2024-02-16T19:41:25.726Z,9.50
2024-02-16T19:43:52.865Z,9.50
2024-02-16T19:46:19.844Z,9.50
2024-02-16T19:48:46.937Z,9.50
2024-02-16T19:51:17.095Z,9.50
2024-02-16T19:53:44.009Z,9.40
2024-02-16T19:56:10.871Z,9.40
2024-02-16T19:58:37.696Z,9.40
2024-02-16T20:01:04.699Z,9.40
2024-02-16T20:03:31.654Z,9.30
2024-02-16T20:05:59.879Z,9.30
2024-02-16T20:08:26.773Z,9.30
2024-02-16T20:10:53.698Z,9.30
2024-02-16T20:13:20.567Z,9.30
2024-02-16T20:15:47.862Z,9.30
2024-02-16T20:18:19.943Z,9.30
2024-02-16T20:20:47.391Z,9.30
2024-02-16T20:23:17.024Z,9.30
2024-02-16T20:25:44.544Z,9.20
2024-02-16T20:28:11.393Z,9.20
2024-02-16T20:30:38.374Z,9.20
2024-02-16T20:33:05.891Z,9.20
2024-02-16T20:35:33.053Z,9.20
2024-02-16T20:38:01.158Z,9.20
2024-02-16T20:40:28.211Z,9.10
2024-02-16T20:42:55.132Z,9.10
2024-02-16T20:45:22.104Z,9.10
2024-02-16T20:47:49.061Z,9.00
2024-02-16T20:50:17.463Z,9.00
2024-02-16T20:52:45.058Z,8.90
2024-02-16T20:55:12.180Z,8.90
2024-02-16T20:57:39.278Z,8.80
2024-02-16T21:00:09.571Z,8.80
2024-02-16T21:02:36.536Z,8.80
2024-02-16T21:05:04.152Z,8.80
2024-02-16T21:07:31.080Z,8.70
2024-02-16T21:10:16.748Z,8.80
2024-02-16T21:12:44.133Z,8.70
2024-02-16T21:15:11.362Z,8.70
2024-02-16T21:17:38.322Z,8.60
2024-02-16T21:20:07.445Z,8.60
2024-02-16T21:22:37.677Z,8.50
2024-02-16T21:25:06.279Z,8.50
2024-02-16T21:27:33.266Z,8.50
2024-02-16T21:30:07.364Z,8.40
2024-02-16T21:32:34.521Z,8.40
2024-02-16T21:35:01.573Z,8.40
2024-02-16T21:37:30.817Z,8.40
2024-02-16T21:40:00.919Z,8.40
2024-02-16T21:42:27.815Z,8.30
2024-02-16T21:44:54.675Z,8.30
2024-02-16T21:47:21.845Z,8.30
2024-02-16T21:49:49.888Z,8.30
2024-02-16T21:52:16.915Z,8.30
2024-02-16T21:54:43.780Z,8.30
2024-02-16T21:57:11.097Z,8.30
2024-02-16T21:59:37.961Z,8.30
2024-02-16T22:02:04.837Z,8.30
2024-02-16T22:04:31.644Z,8.30
2024-02-16T22:06:58.597Z,8.20
2024-02-16T22:09:25.543Z,8.20
2024-02-16T22:11:52.490Z,8.20
2024-02-16T22:14:19.320Z,8.20
2024-02-16T22:16:46.181Z,8.20
2024-02-16T22:19:13.105Z,8.20
2024-02-16T22:21:43.043Z,8.20
2024-02-16T22:24:11.597Z,8.20
2024-02-16T22:26:41.242Z,8.20
2024-02-16T22:29:08.604Z,8.20
2024-02-16T22:31:41.328Z,8.20
2024-02-16T22:34:10.434Z,8.20
2024-02-16T22:36:37.713Z,8.20
2024-02-16T22:39:05.399Z,8.20
2024-02-16T22:41:32.836Z,8.20
2024-02-16T22:44:00.137Z,8.20
2024-02-16T22:46:26.966Z,8.20
2024-02-16T22:48:54.496Z,8.20
2024-02-16T22:51:21.542Z,8.20
2024-02-16T22:53:48.969Z,8.20
2024-02-16T22:56:21.949Z,8.20
2024-02-16T22:58:48.921Z,8.20
2024-02-16T23:05:26.972Z,8.20
2024-02-16T23:07:55.459Z,8.20
2024-02-16T23:10:25.283Z,8.20
2024-02-16T23:12:52.142Z,8.20
2024-02-16T23:15:20.737Z,8.20
2024-02-16T23:17:47.702Z,8.20
2024-02-16T23:20:15.685Z,8.20
2024-02-16T23:23:11.631Z,8.20
2024-02-16T23:25:40.460Z,8.30
2024-02-16T23:28:08.341Z,8.30
2024-02-16T23:30:35.250Z,8.20
2024-02-16T23:33:02.593Z,8.20
2024-02-16T23:35:29.773Z,8.20
2024-02-16T23:37:56.628Z,8.20
2024-02-16T23:40:23.504Z,8.10
2024-02-16T23:42:50.432Z,8.10
2024-02-16T23:45:18.797Z,8.00
2024-02-16T23:47:46.014Z,8.00
2024-02-16T23:50:14.449Z,8.00
2024-02-16T23:52:42.863Z,8.00
2024-02-16T23:55:10.848Z,8.00
2024-02-16T23:57:38.351Z,8.00
